createdAt,value
2022-08-19T00:00:14.890Z,28.63
2022-08-19T00:00:37.275Z,28.63
2022-08-19T00:00:59.640Z,28.61
2022-08-19T00:01:29.191Z,28.60
2022-08-19T00:01:55.436Z,28.52
2022-08-19T00:02:17.604Z,28.58
2022-08-19T00:02:39.486Z,28.59
2022-08-19T00:03:11.945Z,28.58
2022-08-19T00:03:33.612Z,28.57
2022-08-19T00:03:56.249Z,28.58
2022-08-19T00:04:20.851Z,28.55
2022-08-19T00:04:42.695Z,28.54
2022-08-19T00:05:05.951Z,28.52
2022-08-19T00:05:27.758Z,28.56
2022-08-19T00:05:50.346Z,28.53
2022-08-19T00:06:12.282Z,28.53
2022-08-19T00:06:36.261Z,28.50
2022-08-19T00:06:59.407Z,28.52
2022-08-19T00:07:22.240Z,28.49
2022-08-19T00:07:44.708Z,28.53
2022-08-19T00:08:06.356Z,28.52
2022-08-19T00:08:28.224Z,28.50
2022-08-19T00:08:52.210Z,28.52
2022-08-19T00:09:17.895Z,28.55
2022-08-19T00:09:39.598Z,28.54
2022-08-19T00:10:02.325Z,28.56
2022-08-19T00:10:25.341Z,28.55
2022-08-19T00:10:47.440Z,28.55
2022-08-19T00:11:09.305Z,28.57
2022-08-19T00:11:41.640Z,28.58
2022-08-19T00:12:04.406Z,28.58
2022-08-19T00:12:26.132Z,28.58
2022-08-19T00:12:48.130Z,28.57
2022-08-19T00:13:11.333Z,28.57
2022-08-19T00:13:33.240Z,28.52
2022-08-19T00:13:56.269Z,28.57
2022-08-19T00:14:19.150Z,28.56
2022-08-19T00:14:41.811Z,28.54
2022-08-19T00:15:04.618Z,28.52
2022-08-19T00:15:33.295Z,28.55
2022-08-19T00:15:55.233Z,28.55
2022-08-19T00:16:17.107Z,28.55
2022-08-19T00:16:40.573Z,28.55
2022-08-19T00:17:03.884Z,28.55
2022-08-19T00:17:25.628Z,28.52
2022-08-19T00:17:47.812Z,28.56
2022-08-19T00:18:10.519Z,28.57
2022-08-19T00:18:32.397Z,28.57
2022-08-19T00:18:54.461Z,28.57
2022-08-19T00:19:18.372Z,28.54
2022-08-19T00:19:41.552Z,28.48
2022-08-19T00:20:04.354Z,28.56
2022-08-19T00:20:26.784Z,28.55
2022-08-19T00:20:48.526Z,28.54
2022-08-19T00:21:31.411Z,28.54
2022-08-19T00:21:54.407Z,28.51
2022-08-19T00:22:18.719Z,28.52
2022-08-19T00:22:42.172Z,28.51
2022-08-19T00:23:04.351Z,28.51
2022-08-19T00:23:27.195Z,28.51
2022-08-19T00:23:49.062Z,28.50
2022-08-19T00:24:13.792Z,28.49
2022-08-19T00:24:38.818Z,28.50
2022-08-19T00:25:00.575Z,28.51
2022-08-19T00:25:30.305Z,28.48
2022-08-19T00:25:53.069Z,28.50
2022-08-19T00:26:15.882Z,28.48
2022-08-19T00:26:38.714Z,28.47
2022-08-19T00:27:25.271Z,28.46
2022-08-19T00:27:45.493Z,28.49
2022-08-19T00:28:07.356Z,28.48
2022-08-19T00:28:29.032Z,28.51
2022-08-19T00:28:50.925Z,28.52
2022-08-19T00:29:16.676Z,28.52
2022-08-19T00:29:38.950Z,28.51
2022-08-19T00:30:01.004Z,28.49
2022-08-19T00:30:22.625Z,28.50
2022-08-19T00:30:45.303Z,28.48
2022-08-19T00:31:08.812Z,28.47
2022-08-19T00:31:32.066Z,28.45
2022-08-19T00:31:55.554Z,28.44
2022-08-19T00:32:18.382Z,28.46
2022-08-19T00:32:41.229Z,28.46
2022-08-19T00:33:02.951Z,28.45
2022-08-19T00:33:25.585Z,28.44
2022-08-19T00:33:47.285Z,28.44
2022-08-19T00:34:08.987Z,28.42
2022-08-19T00:34:31.093Z,28.42
2022-08-19T00:34:54.262Z,28.42
2022-08-19T00:35:17.528Z,28.30
2022-08-19T00:35:39.475Z,28.42
2022-08-19T00:36:01.730Z,28.37
2022-08-19T00:36:24.679Z,28.41
2022-08-19T00:36:46.581Z,28.39
2022-08-19T00:37:08.312Z,28.39
2022-08-19T00:37:29.995Z,28.39
2022-08-19T00:37:52.626Z,28.37
2022-08-19T00:38:14.680Z,28.34
2022-08-19T00:38:38.371Z,28.36
2022-08-19T00:39:00.186Z,28.37
2022-08-19T00:39:22.075Z,28.37
2022-08-19T00:39:49.253Z,28.34
2022-08-19T00:40:13.656Z,28.36
2022-08-19T00:40:35.385Z,28.37
2022-08-19T00:40:57.403Z,28.34
2022-08-19T00:41:22.412Z,28.30
2022-08-19T00:41:47.791Z,28.33
2022-08-19T00:42:09.733Z,28.34
2022-08-19T00:42:31.379Z,28.33
2022-08-19T00:42:54.694Z,28.33
2022-08-19T00:43:22.421Z,28.29
2022-08-19T00:43:44.501Z,28.25
2022-08-19T00:44:08.993Z,28.34
2022-08-19T00:44:31.308Z,28.30
2022-08-19T00:44:54.033Z,28.32
2022-08-19T00:45:18.798Z,28.30
2022-08-19T00:45:42.877Z,28.28
2022-08-19T00:46:05.782Z,28.29
2022-08-19T00:46:28.839Z,28.30
2022-08-19T00:46:58.250Z,28.29
2022-08-19T00:47:20.716Z,28.29
2022-08-19T00:47:42.581Z,28.27
2022-08-19T00:48:06.014Z,28.28
2022-08-19T00:48:37.428Z,28.27
2022-08-19T00:48:59.952Z,28.29
2022-08-19T00:49:26.922Z,28.29
2022-08-19T00:49:52.481Z,28.27
2022-08-19T00:50:17.708Z,28.25
2022-08-19T00:50:52.062Z,28.25
2022-08-19T00:51:15.116Z,28.26
2022-08-19T00:51:37.270Z,28.25
2022-08-19T00:52:02.557Z,28.25
2022-08-19T00:52:29.762Z,28.26
2022-08-19T00:52:52.348Z,28.27
2022-08-19T00:53:18.475Z,28.21
2022-08-19T00:53:40.648Z,28.28
2022-08-19T00:54:04.260Z,28.27
2022-08-19T00:54:31.273Z,28.26
2022-08-19T00:54:54.700Z,28.23
2022-08-19T00:55:19.581Z,28.28
2022-08-19T00:55:44.165Z,28.26
2022-08-19T00:56:07.290Z,28.24
2022-08-19T00:56:29.529Z,28.26
2022-08-19T00:56:51.814Z,28.29
2022-08-19T00:57:21.056Z,28.26
2022-08-19T00:57:47.410Z,28.28
2022-08-19T00:58:13.161Z,28.27
2022-08-19T00:58:36.985Z,28.28
2022-08-19T00:59:02.586Z,28.26
2022-08-19T00:59:56.139Z,28.29
2022-08-19T01:00:10.718Z,28.27
2022-08-19T01:00:37.457Z,28.29
2022-08-19T01:00:59.618Z,28.29
2022-08-19T01:01:21.749Z,28.29
2022-08-19T01:01:45.460Z,28.28
2022-08-19T01:02:07.949Z,28.23
2022-08-19T01:02:32.511Z,28.26
2022-08-19T01:02:55.092Z,28.26
2022-08-19T01:03:19.249Z,28.28
2022-08-19T01:03:57.958Z,28.28
2022-08-19T01:04:22.288Z,28.28
2022-08-19T01:04:43.919Z,28.29
2022-08-19T01:05:09.048Z,28.27
2022-08-19T01:05:33.415Z,28.27
2022-08-19T01:05:55.953Z,28.25
2022-08-19T01:06:20.059Z,28.25
2022-08-19T01:06:43.220Z,28.27
2022-08-19T01:07:08.133Z,28.26
2022-08-19T01:07:35.880Z,28.24
2022-08-19T01:08:02.788Z,28.22
2022-08-19T01:08:24.525Z,28.24
2022-08-19T01:08:47.281Z,28.24
2022-08-19T01:09:11.937Z,28.25
2022-08-19T01:09:33.635Z,28.24
2022-08-19T01:09:57.195Z,28.25
2022-08-19T01:10:22.914Z,28.22
2022-08-19T01:10:49.541Z,28.23
2022-08-19T01:11:11.416Z,28.25
2022-08-19T01:11:37.156Z,28.24
2022-08-19T01:12:01.204Z,28.25
2022-08-19T01:12:24.381Z,28.26
2022-08-19T01:12:47.196Z,28.25
2022-08-19T01:13:09.613Z,28.23
2022-08-19T01:13:49.291Z,28.25
2022-08-19T01:14:14.227Z,28.27
2022-08-19T01:14:37.762Z,28.27
2022-08-19T01:15:00.593Z,28.26
2022-08-19T01:15:27.564Z,28.24
2022-08-19T01:15:54.101Z,28.22
2022-08-19T01:16:18.267Z,28.22
2022-08-19T01:16:42.007Z,28.26
2022-08-19T01:17:04.293Z,28.24
2022-08-19T01:17:27.129Z,28.24
2022-08-19T01:17:50.341Z,28.17
2022-08-19T01:18:15.201Z,28.18
2022-08-19T01:18:40.552Z,28.20
2022-08-19T01:19:04.197Z,28.18
2022-08-19T01:19:31.510Z,28.15
2022-08-19T01:20:07.115Z,28.12
2022-08-19T01:20:28.995Z,28.10
2022-08-19T01:20:53.978Z,28.12
2022-08-19T01:21:23.200Z,28.09
2022-08-19T01:21:56.575Z,28.11
2022-08-19T01:22:33.284Z,28.12
2022-08-19T01:22:57.793Z,28.12
2022-08-19T01:23:19.495Z,28.08
2022-08-19T01:23:44.275Z,28.12
2022-08-19T01:24:07.317Z,28.14
2022-08-19T01:24:29.370Z,28.12
2022-08-19T01:24:52.339Z,28.14
2022-08-19T01:25:15.410Z,28.13
2022-08-19T01:25:44.365Z,28.11
2022-08-19T01:26:07.130Z,28.11
2022-08-19T01:26:30.046Z,28.11
2022-08-19T01:26:53.952Z,28.12
2022-08-19T01:27:15.745Z,28.13
2022-08-19T01:27:43.705Z,28.14
2022-08-19T01:28:10.712Z,28.12
2022-08-19T01:28:37.174Z,28.10
2022-08-19T01:29:05.193Z,28.09
2022-08-19T01:29:27.060Z,28.10
2022-08-19T01:29:48.818Z,28.09
2022-08-19T01:30:14.291Z,28.09
2022-08-19T01:30:37.593Z,28.08
2022-08-19T01:30:59.789Z,28.10
2022-08-19T01:31:26.979Z,28.10
2022-08-19T01:31:54.423Z,28.10
2022-08-19T01:32:21.162Z,28.08
2022-08-19T01:32:55.931Z,28.09
2022-08-19T01:33:18.649Z,28.12
2022-08-19T01:33:40.423Z,28.13
2022-08-19T01:34:03.054Z,28.09
2022-08-19T01:34:25.513Z,28.08
2022-08-19T01:34:48.626Z,28.12
2022-08-19T01:35:11.295Z,28.12
2022-08-19T01:35:33.345Z,28.13
2022-08-19T01:35:55.010Z,28.14
2022-08-19T01:36:24.319Z,28.14
2022-08-19T01:36:50.001Z,28.11
2022-08-19T01:37:12.741Z,28.13
2022-08-19T01:37:45.098Z,28.12
2022-08-19T01:38:11.015Z,28.11
2022-08-19T01:38:38.041Z,28.12
2022-08-19T01:39:10.257Z,28.11
2022-08-19T01:39:31.964Z,28.11
2022-08-19T01:39:55.232Z,28.10
2022-08-19T01:40:17.347Z,28.11
2022-08-19T01:40:40.881Z,28.08
2022-08-19T01:41:02.527Z,28.10
2022-08-19T01:41:33.833Z,28.07
2022-08-19T01:41:56.092Z,28.07
2022-08-19T01:42:17.757Z,28.06
2022-08-19T01:42:39.536Z,28.05
2022-08-19T01:43:03.848Z,28.07
2022-08-19T01:43:25.501Z,28.04
2022-08-19T01:44:13.688Z,28.03
2022-08-19T01:44:29.810Z,28.00
2022-08-19T01:44:51.468Z,28.02
2022-08-19T01:45:13.174Z,28.00
2022-08-19T01:45:36.012Z,28.00
2022-08-19T01:45:57.764Z,28.01
2022-08-19T01:46:24.975Z,28.00
2022-08-19T01:46:49.267Z,27.98
2022-08-19T01:47:11.080Z,27.99
2022-08-19T01:47:32.744Z,27.87
2022-08-19T01:48:02.205Z,27.99
2022-08-19T01:48:24.625Z,27.97
2022-08-19T01:48:47.702Z,27.97
2022-08-19T01:49:09.616Z,27.98
2022-08-19T01:49:33.620Z,27.99
2022-08-19T01:49:55.467Z,27.97
2022-08-19T01:50:17.770Z,27.91
2022-08-19T01:50:39.996Z,27.97
2022-08-19T01:51:01.691Z,27.96
2022-08-19T01:51:24.629Z,27.96
2022-08-19T01:51:46.942Z,27.95
2022-08-19T01:52:08.696Z,27.80
2022-08-19T01:52:30.368Z,27.82
2022-08-19T01:53:01.245Z,27.89
2022-08-19T01:53:30.614Z,27.87
2022-08-19T01:53:55.888Z,27.86
2022-08-19T01:54:23.245Z,27.78
2022-08-19T01:54:51.096Z,27.86
2022-08-19T01:55:18.457Z,27.79
2022-08-19T01:55:44.225Z,27.81
2022-08-19T01:56:09.830Z,27.82
2022-08-19T01:56:31.562Z,27.81
2022-08-19T01:56:59.166Z,27.73
2022-08-19T01:57:21.492Z,27.81
2022-08-19T01:57:48.378Z,27.79
2022-08-19T01:58:15.390Z,27.77
2022-08-19T01:58:42.856Z,27.78
2022-08-19T01:59:11.949Z,27.76
2022-08-19T01:59:39.140Z,27.71
2022-08-19T02:00:06.018Z,27.74
2022-08-19T02:00:48.342Z,27.71
2022-08-19T02:01:11.843Z,27.71
2022-08-19T02:01:35.625Z,27.71
2022-08-19T02:01:57.468Z,27.73
2022-08-19T02:02:19.174Z,27.73
2022-08-19T02:02:41.170Z,27.77
2022-08-19T02:03:07.504Z,27.78
2022-08-19T02:03:29.954Z,27.77
2022-08-19T02:03:52.847Z,27.79
2022-08-19T02:04:19.489Z,27.79
2022-08-19T02:04:41.378Z,27.79
2022-08-19T02:05:03.938Z,27.77
2022-08-19T02:05:25.926Z,27.79
2022-08-19T02:05:48.580Z,27.80
2022-08-19T02:06:10.365Z,27.80
2022-08-19T02:06:34.404Z,27.78
2022-08-19T02:06:56.370Z,27.76
2022-08-19T02:07:21.502Z,27.77
2022-08-19T02:07:43.281Z,27.74
2022-08-19T02:08:07.383Z,27.75
2022-08-19T02:08:30.502Z,27.70
2022-08-19T02:08:53.115Z,27.71
2022-08-19T02:09:19.600Z,27.69
2022-08-19T02:09:41.347Z,27.70
2022-08-19T02:10:04.595Z,27.71
2022-08-19T02:10:35.277Z,27.71
2022-08-19T02:10:57.787Z,27.72
2022-08-19T02:11:22.313Z,27.69
2022-08-19T02:11:45.193Z,27.69
2022-08-19T02:12:11.087Z,27.68
2022-08-19T02:12:32.848Z,27.72
2022-08-19T02:12:54.763Z,27.71
2022-08-19T02:13:26.435Z,27.72
2022-08-19T02:13:50.506Z,27.72
2022-08-19T02:14:12.200Z,27.74
2022-08-19T02:14:35.182Z,27.74
2022-08-19T02:14:58.141Z,27.68
2022-08-19T02:15:20.987Z,27.76
2022-08-19T02:15:42.740Z,27.71
2022-08-19T02:16:04.621Z,27.77
2022-08-19T02:16:27.681Z,27.75
2022-08-19T02:16:50.341Z,27.74
2022-08-19T02:17:12.016Z,27.73
2022-08-19T02:17:34.921Z,27.75
2022-08-19T02:17:56.604Z,27.75
2022-08-19T02:18:19.366Z,27.76
2022-08-19T02:18:41.005Z,27.74
2022-08-19T02:19:02.912Z,27.76
2022-08-19T02:19:24.647Z,27.75
2022-08-19T02:19:47.279Z,27.73
2022-08-19T02:20:10.516Z,27.62
2022-08-19T02:20:32.287Z,27.72
2022-08-19T02:20:54.131Z,27.71
2022-08-19T02:21:18.295Z,27.69
2022-08-19T02:21:40.013Z,27.70
2022-08-19T02:22:01.725Z,27.69
2022-08-19T02:22:23.807Z,27.71
2022-08-19T02:22:45.789Z,27.71
2022-08-19T02:23:13.951Z,27.73
2022-08-19T02:23:38.009Z,27.73
2022-08-19T02:24:00.199Z,27.75
2022-08-19T02:24:21.870Z,27.72
2022-08-19T02:24:44.544Z,27.67
2022-08-19T02:25:06.583Z,27.72
2022-08-19T02:25:28.974Z,27.71
2022-08-19T02:25:52.947Z,27.64
2022-08-19T02:26:15.766Z,27.72
2022-08-19T02:26:37.597Z,27.70
2022-08-19T02:26:59.706Z,27.67
2022-08-19T02:27:22.297Z,27.67
2022-08-19T02:27:45.449Z,27.66
2022-08-19T02:28:07.702Z,27.68
2022-08-19T02:28:29.339Z,27.68
2022-08-19T02:28:51.023Z,27.67
2022-08-19T02:29:14.409Z,27.67
2022-08-19T02:29:36.502Z,27.66
2022-08-19T02:29:58.205Z,27.67
2022-08-19T02:30:20.028Z,27.65
2022-08-19T02:30:43.996Z,27.63
2022-08-19T02:31:10.200Z,27.62
2022-08-19T02:31:31.904Z,27.62
2022-08-19T02:31:53.608Z,27.62
2022-08-19T02:32:16.540Z,27.56
2022-08-19T02:32:44.743Z,27.63
2022-08-19T02:33:06.813Z,27.60
2022-08-19T02:33:28.518Z,27.60
2022-08-19T02:33:51.643Z,27.58
2022-08-19T02:34:13.370Z,27.60
2022-08-19T02:34:37.402Z,27.59
2022-08-19T02:35:25.813Z,27.62
2022-08-19T02:35:49.229Z,27.63
2022-08-19T02:36:12.975Z,27.62
2022-08-19T02:36:37.249Z,27.52
2022-08-19T02:37:04.417Z,27.58
2022-08-19T02:37:44.861Z,27.60
2022-08-19T02:38:27.203Z,27.61
2022-08-19T02:38:55.041Z,27.60
2022-08-19T02:39:17.245Z,27.59
2022-08-19T02:39:39.159Z,27.56
2022-08-19T02:40:01.021Z,27.55
2022-08-19T02:40:22.797Z,27.54
2022-08-19T02:40:52.477Z,27.55
2022-08-19T02:41:16.910Z,27.54
2022-08-19T02:41:38.767Z,27.53
2022-08-19T02:42:02.800Z,27.53
2022-08-19T02:42:24.516Z,27.51
2022-08-19T02:42:46.589Z,27.50
2022-08-19T02:43:09.564Z,27.51
2022-08-19T02:43:35.075Z,27.51
2022-08-19T02:44:29.171Z,27.51
2022-08-19T02:44:40.422Z,27.44
2022-08-19T02:45:02.091Z,27.48
2022-08-19T02:45:24.726Z,27.48
2022-08-19T02:45:46.435Z,27.47
2022-08-19T02:46:22.077Z,27.47
2022-08-19T02:46:45.768Z,27.47
2022-08-19T02:47:08.529Z,27.48
2022-08-19T02:47:30.204Z,27.48
2022-08-19T02:47:51.892Z,27.48
2022-08-19T02:48:21.417Z,27.49
2022-08-19T02:48:45.076Z,27.51
2022-08-19T02:49:08.573Z,27.49
2022-08-19T02:49:34.805Z,27.45
2022-08-19T02:49:56.617Z,27.53
2022-08-19T02:50:18.623Z,27.48
2022-08-19T02:50:41.600Z,27.39
2022-08-19T02:51:19.412Z,27.42
2022-08-19T02:51:44.913Z,27.42
2022-08-19T02:52:07.677Z,27.38
2022-08-19T02:52:29.321Z,27.37
2022-08-19T02:52:51.106Z,27.35
2022-08-19T02:53:17.209Z,27.35
2022-08-19T02:53:39.839Z,27.33
2022-08-19T02:54:02.265Z,27.25
2022-08-19T02:54:23.894Z,27.23
2022-08-19T02:54:45.516Z,27.34
2022-08-19T02:55:08.212Z,27.37
2022-08-19T02:55:30.866Z,27.36
2022-08-19T02:56:08.540Z,27.41
2022-08-19T02:56:31.740Z,27.43
2022-08-19T02:56:54.406Z,27.44
2022-08-19T02:57:16.746Z,27.46
2022-08-19T02:57:38.629Z,27.46
2022-08-19T02:58:00.802Z,27.49
2022-08-19T02:58:23.909Z,27.49
2022-08-19T02:58:49.094Z,27.53
2022-08-19T02:59:12.048Z,27.42
2022-08-19T02:59:33.993Z,27.53
2022-08-19T02:59:55.696Z,27.53
2022-08-19T03:00:17.844Z,27.54
2022-08-19T03:00:44.456Z,27.57
2022-08-19T03:01:06.685Z,27.55
2022-08-19T03:01:31.600Z,27.58
2022-08-19T03:01:54.670Z,27.57
2022-08-19T03:02:16.889Z,27.59
2022-08-19T03:02:38.577Z,27.60
2022-08-19T03:03:01.411Z,27.58
2022-08-19T03:03:24.463Z,27.59
2022-08-19T03:03:47.362Z,27.59
2022-08-19T03:04:11.478Z,27.57
2022-08-19T03:04:33.166Z,27.54
2022-08-19T03:04:54.800Z,27.57
2022-08-19T03:05:17.881Z,27.56
2022-08-19T03:05:48.123Z,27.54
2022-08-19T03:06:18.638Z,27.52
2022-08-19T03:06:42.324Z,27.53
2022-08-19T03:07:11.097Z,27.54
2022-08-19T03:07:33.119Z,27.54
2022-08-19T03:07:54.796Z,27.55
2022-08-19T03:08:18.858Z,27.53
2022-08-19T03:08:44.862Z,27.49
2022-08-19T03:09:06.633Z,27.49
2022-08-19T03:09:28.318Z,27.49
2022-08-19T03:09:50.998Z,27.52
2022-08-19T03:10:12.697Z,27.52
2022-08-19T03:10:34.446Z,27.48
2022-08-19T03:10:56.147Z,27.47
2022-08-19T03:11:21.340Z,27.51
2022-08-19T03:11:43.053Z,27.50
2022-08-19T03:12:06.268Z,27.48
2022-08-19T03:12:28.045Z,27.55
2022-08-19T03:12:49.704Z,27.55
2022-08-19T03:13:12.965Z,27.55
2022-08-19T03:13:36.784Z,27.54
2022-08-19T03:13:59.260Z,27.56
2022-08-19T03:14:20.955Z,27.56
2022-08-19T03:14:42.665Z,27.51
2022-08-19T03:15:07.089Z,27.58
2022-08-19T03:15:28.772Z,27.56
2022-08-19T03:15:50.546Z,27.54
2022-08-19T03:16:13.263Z,27.55
2022-08-19T03:16:43.393Z,27.55
2022-08-19T03:17:05.625Z,27.38
2022-08-19T03:17:29.442Z,27.54
2022-08-19T03:17:51.498Z,27.53
2022-08-19T03:18:15.067Z,27.54
2022-08-19T03:18:37.064Z,27.54
2022-08-19T03:19:00.936Z,27.53
2022-08-19T03:19:22.629Z,27.51
2022-08-19T03:19:45.332Z,27.48
2022-08-19T03:20:08.123Z,27.49
2022-08-19T03:20:29.817Z,27.50
2022-08-19T03:20:53.848Z,27.51
2022-08-19T03:21:18.553Z,27.50
2022-08-19T03:21:40.256Z,27.51
2022-08-19T03:22:01.969Z,27.48
2022-08-19T03:22:23.698Z,27.48
2022-08-19T03:22:48.420Z,27.49
2022-08-19T03:23:11.597Z,27.49
2022-08-19T03:23:35.747Z,27.49
2022-08-19T03:24:00.010Z,27.49
2022-08-19T03:24:21.748Z,27.49
2022-08-19T03:24:44.728Z,27.50
2022-08-19T03:25:06.809Z,27.46
2022-08-19T03:25:28.591Z,27.49
2022-08-19T03:26:02.843Z,27.49
2022-08-19T03:26:39.782Z,27.51
2022-08-19T03:27:01.589Z,27.50
2022-08-19T03:27:23.316Z,27.47
2022-08-19T03:27:45.015Z,27.45
2022-08-19T03:28:06.690Z,27.45
2022-08-19T03:28:29.361Z,27.44
2022-08-19T03:28:58.266Z,27.42
2022-08-19T03:29:30.352Z,27.45
2022-08-19T03:29:54.511Z,27.46
2022-08-19T03:30:16.269Z,27.48
2022-08-19T03:30:57.629Z,27.46
2022-08-19T03:31:44.462Z,27.47
2022-08-19T03:32:06.374Z,27.52
2022-08-19T03:32:32.983Z,27.49
2022-08-19T03:32:57.304Z,27.49
2022-08-19T03:33:24.942Z,27.51
2022-08-19T03:33:51.425Z,27.49
2022-08-19T03:34:15.999Z,27.53
2022-08-19T03:34:40.024Z,27.51
2022-08-19T03:35:01.697Z,27.39
2022-08-19T03:35:23.329Z,27.51
2022-08-19T03:35:46.010Z,27.52
2022-08-19T03:36:11.096Z,27.39
2022-08-19T03:36:32.862Z,27.51
2022-08-19T03:36:55.731Z,27.52
2022-08-19T03:37:18.638Z,27.48
2022-08-19T03:37:40.336Z,27.48
2022-08-19T03:38:02.821Z,27.48
2022-08-19T03:38:24.491Z,27.47
2022-08-19T03:38:51.133Z,27.44
2022-08-19T03:39:18.524Z,27.42
2022-08-19T03:39:41.538Z,27.39
2022-08-19T03:40:05.134Z,27.41
2022-08-19T03:40:27.110Z,27.42
2022-08-19T03:40:48.799Z,27.39
2022-08-19T03:41:12.526Z,27.36
2022-08-19T03:41:45.048Z,27.40
2022-08-19T03:42:38.298Z,27.39
2022-08-19T03:42:50.964Z,27.40
2022-08-19T03:43:12.608Z,27.40
2022-08-19T03:43:35.100Z,27.21
2022-08-19T03:43:58.654Z,27.39
2022-08-19T03:44:22.581Z,27.40
2022-08-19T03:44:45.911Z,27.40
2022-08-19T03:45:08.569Z,27.38
2022-08-19T03:45:31.322Z,27.39
2022-08-19T03:46:01.059Z,27.40
2022-08-19T03:46:25.642Z,27.42
2022-08-19T03:46:49.189Z,27.45
2022-08-19T03:47:16.539Z,27.46
2022-08-19T03:47:38.712Z,27.44
2022-08-19T03:48:00.485Z,27.43
2022-08-19T03:48:22.147Z,27.42
2022-08-19T03:48:45.154Z,27.41
2022-08-19T03:49:08.110Z,27.41
2022-08-19T03:49:32.355Z,27.43
2022-08-19T03:49:54.563Z,27.42
2022-08-19T03:50:16.736Z,27.41
2022-08-19T03:50:41.521Z,27.38
2022-08-19T03:51:04.152Z,27.41
2022-08-19T03:51:30.624Z,27.38
2022-08-19T03:51:52.830Z,27.40
2022-08-19T03:52:15.876Z,27.40
2022-08-19T03:52:37.799Z,27.41
2022-08-19T03:52:59.467Z,27.45
2022-08-19T03:53:21.144Z,27.46
2022-08-19T03:53:42.790Z,27.47
2022-08-19T03:54:10.292Z,27.52
2022-08-19T03:54:31.974Z,27.49
2022-08-19T03:54:53.624Z,27.54
2022-08-19T03:55:16.617Z,27.54
2022-08-19T03:55:40.926Z,27.57
2022-08-19T03:56:02.946Z,27.57
2022-08-19T03:56:26.601Z,27.58
2022-08-19T03:56:51.493Z,27.57
2022-08-19T03:57:13.168Z,27.57
2022-08-19T03:57:35.570Z,27.55
2022-08-19T03:57:59.170Z,27.55
2022-08-19T03:58:21.604Z,27.57
2022-08-19T03:58:44.361Z,27.54
2022-08-19T03:59:10.460Z,27.54
2022-08-19T03:59:34.317Z,27.53
2022-08-19T03:59:56.997Z,27.54
2022-08-19T04:00:35.060Z,27.48
2022-08-19T04:00:57.297Z,27.48
2022-08-19T04:01:21.741Z,27.44
2022-08-19T04:02:05.864Z,27.50
2022-08-19T04:02:31.209Z,27.47
2022-08-19T04:02:58.089Z,27.43
2022-08-19T04:03:24.395Z,27.45
2022-08-19T04:03:49.093Z,27.46
2022-08-19T04:04:11.458Z,27.45
2022-08-19T04:04:34.364Z,27.42
2022-08-19T04:04:56.355Z,27.40
2022-08-19T04:05:18.407Z,27.40
2022-08-19T04:05:50.658Z,27.41
2022-08-19T04:06:22.078Z,27.42
2022-08-19T04:06:45.353Z,27.40
2022-08-19T04:07:16.738Z,27.40
2022-08-19T04:07:38.454Z,27.42
2022-08-19T04:08:00.646Z,27.43
2022-08-19T04:08:23.329Z,27.41
2022-08-19T04:08:48.052Z,27.40
2022-08-19T04:09:12.154Z,27.38
2022-08-19T04:09:35.053Z,27.42
2022-08-19T04:09:57.727Z,27.44
2022-08-19T04:10:19.637Z,27.41
2022-08-19T04:10:41.587Z,27.40
2022-08-19T04:11:08.746Z,27.39
2022-08-19T04:11:43.453Z,27.38
2022-08-19T04:12:07.653Z,27.34
2022-08-19T04:12:29.562Z,27.39
2022-08-19T04:12:51.487Z,27.39
2022-08-19T04:13:13.453Z,27.38
2022-08-19T04:13:36.107Z,27.38
2022-08-19T04:13:58.016Z,27.37
2022-08-19T04:14:22.239Z,27.38
2022-08-19T04:14:43.956Z,27.35
2022-08-19T04:15:08.306Z,27.34
2022-08-19T04:15:32.091Z,27.38
2022-08-19T04:15:54.392Z,27.39
2022-08-19T04:16:16.096Z,27.38
2022-08-19T04:16:38.013Z,27.37
2022-08-19T04:17:02.428Z,27.39
2022-08-19T04:17:26.774Z,27.38
2022-08-19T04:17:48.615Z,27.38
2022-08-19T04:18:10.972Z,27.40
2022-08-19T04:18:36.442Z,27.35
2022-08-19T04:19:02.777Z,27.38
2022-08-19T04:19:24.525Z,27.38
2022-08-19T04:19:47.212Z,27.35
2022-08-19T04:20:09.485Z,27.33
2022-08-19T04:20:31.116Z,27.33
2022-08-19T04:20:52.867Z,27.34
2022-08-19T04:21:17.924Z,27.31
2022-08-19T04:21:41.171Z,27.31
2022-08-19T04:22:04.264Z,27.31
2022-08-19T04:22:25.977Z,27.29
2022-08-19T04:22:50.557Z,27.31
2022-08-19T04:23:13.896Z,27.32
2022-08-19T04:23:36.893Z,27.32
2022-08-19T04:24:06.937Z,27.33
2022-08-19T04:24:31.215Z,27.32
2022-08-19T04:24:55.704Z,27.32
2022-08-19T04:25:18.838Z,27.35
2022-08-19T04:25:44.544Z,27.32
2022-08-19T04:26:06.440Z,27.36
2022-08-19T04:26:34.273Z,27.35
2022-08-19T04:26:56.948Z,27.37
2022-08-19T04:27:18.605Z,27.38
2022-08-19T04:27:40.256Z,27.37
2022-08-19T04:28:02.080Z,27.33
2022-08-19T04:28:27.754Z,27.36
2022-08-19T04:28:49.493Z,27.38
2022-08-19T04:29:16.748Z,27.38
2022-08-19T04:29:40.304Z,27.37
2022-08-19T04:30:03.077Z,27.37
2022-08-19T04:30:24.710Z,27.34
2022-08-19T04:30:48.528Z,27.24
2022-08-19T04:31:15.323Z,27.35
2022-08-19T04:31:37.221Z,27.35
2022-08-19T04:32:09.098Z,27.37
2022-08-19T04:32:32.876Z,27.36
2022-08-19T04:32:54.801Z,27.33
2022-08-19T04:33:18.563Z,27.31
2022-08-19T04:33:49.643Z,27.29
2022-08-19T04:34:13.191Z,27.24
2022-08-19T04:34:34.870Z,27.28
2022-08-19T04:35:15.805Z,27.28
2022-08-19T04:35:41.539Z,27.27
2022-08-19T04:36:03.550Z,27.28
2022-08-19T04:36:27.897Z,27.25
2022-08-19T04:36:52.733Z,27.29
2022-08-19T04:37:14.963Z,27.28
2022-08-19T04:37:36.600Z,27.29
2022-08-19T04:37:58.252Z,27.31
2022-08-19T04:38:24.349Z,27.34
2022-08-19T04:38:46.023Z,27.34
2022-08-19T04:39:11.666Z,27.37
2022-08-19T04:39:53.263Z,27.39
2022-08-19T04:40:39.077Z,27.40
2022-08-19T04:41:19.770Z,27.38
2022-08-19T04:42:00.151Z,27.29
2022-08-19T04:42:40.226Z,27.36
2022-08-19T04:43:02.965Z,27.30
2022-08-19T04:43:24.623Z,27.27
2022-08-19T04:43:49.736Z,27.26
2022-08-19T04:44:12.377Z,27.19
2022-08-19T04:44:44.989Z,27.28
2022-08-19T04:45:12.462Z,27.26
2022-08-19T04:45:39.756Z,27.27
2022-08-19T04:46:08.039Z,27.28
2022-08-19T04:46:39.507Z,27.30
2022-08-19T04:47:12.855Z,27.33
2022-08-19T04:47:47.967Z,27.33
2022-08-19T04:48:20.010Z,27.34
2022-08-19T04:48:49.445Z,27.31
2022-08-19T04:49:13.730Z,27.30
2022-08-19T04:49:35.528Z,27.31
2022-08-19T04:49:57.485Z,27.32
2022-08-19T04:50:20.157Z,27.31
2022-08-19T04:50:43.432Z,27.29
2022-08-19T04:51:08.377Z,27.33
2022-08-19T04:51:32.043Z,27.33
2022-08-19T04:51:55.961Z,27.36
2022-08-19T04:52:17.621Z,27.34
2022-08-19T04:52:43.655Z,27.29
2022-08-19T04:53:06.106Z,27.37
2022-08-19T04:53:35.539Z,27.35
2022-08-19T04:54:00.820Z,27.36
2022-08-19T04:54:37.136Z,27.34
2022-08-19T04:55:02.583Z,27.35
2022-08-19T04:55:26.392Z,27.33
2022-08-19T04:55:48.107Z,27.32
2022-08-19T04:56:14.768Z,27.31
2022-08-19T04:56:36.648Z,27.32
2022-08-19T04:56:58.857Z,27.32
2022-08-19T04:57:20.485Z,27.32
2022-08-19T04:57:43.140Z,27.31
2022-08-19T04:58:04.838Z,27.32
2022-08-19T04:58:28.265Z,27.29
2022-08-19T04:58:52.401Z,27.28
2022-08-19T04:59:15.609Z,27.29
2022-08-19T04:59:38.646Z,27.28
2022-08-19T05:00:00.278Z,27.36
2022-08-19T05:00:22.135Z,27.37
2022-08-19T05:00:44.815Z,27.37
2022-08-19T05:01:06.596Z,27.34
2022-08-19T05:01:30.589Z,27.36
2022-08-19T05:01:52.361Z,27.38
2022-08-19T05:02:15.010Z,27.37
2022-08-19T05:02:37.135Z,27.38
2022-08-19T05:02:58.805Z,27.42
2022-08-19T05:03:21.228Z,27.46
2022-08-19T05:03:43.906Z,27.47
2022-08-19T05:04:07.656Z,27.45
2022-08-19T05:04:33.318Z,27.44
2022-08-19T05:04:58.580Z,27.45
2022-08-19T05:05:21.785Z,27.45
2022-08-19T05:05:45.631Z,27.48
2022-08-19T05:06:09.325Z,27.47
2022-08-19T05:06:34.293Z,27.49
2022-08-19T05:07:00.097Z,27.45
2022-08-19T05:07:22.699Z,27.47
2022-08-19T05:07:44.440Z,27.49
2022-08-19T05:08:06.877Z,27.51
2022-08-19T05:08:30.962Z,27.50
2022-08-19T05:08:54.100Z,27.51
2022-08-19T05:09:17.285Z,27.50
2022-08-19T05:09:52.635Z,27.52
2022-08-19T05:10:22.763Z,27.48
2022-08-19T05:10:45.452Z,27.54
2022-08-19T05:11:10.519Z,27.52
2022-08-19T05:11:40.101Z,27.51
2022-08-19T05:12:01.816Z,27.43
2022-08-19T05:12:25.842Z,27.52
2022-08-19T05:12:51.154Z,27.53
2022-08-19T05:13:13.862Z,27.52
2022-08-19T05:13:35.681Z,27.51
2022-08-19T05:13:58.312Z,27.52
2022-08-19T05:14:22.583Z,27.54
2022-08-19T05:14:46.937Z,27.55